Archival Weather

Chicago O'Hare International

Chicago, Illinois (KORD)

Report from: Wednesday, December 21, 2022 2:51 PM CST
Current time: Friday, June 21, 2024 3:02 AM CDT

Current weather – Weather history – Daily summaries
Weather forecast

Temperature-2.2°C (28.0°F)
Dew point-7.2°C (19.0°F)
Winds Calm
Visibility10 mi. (16.1 km)
Clouds Ceiling: Overcast 2,700 ft. (823 m)
Altimeter30.27 in.Hg (1025 mB)
Relative humidity69 %
Density altitude-2,492 ft. (-760 m)
Sea-level pressure102.6 kPa (1026 mB, 30.30 in.Hg)
Remarks Automated weather observing station with precipitation discriminator
Pressure falling more slowly
Flight conditions Marginal Visual Meteorological Conditions
Raw dataKORD 212051Z 00000KT 10SM OVC027 M02/M07 A3027 RMK AO2 SLP261 T10221072 56021
An error has occurred. This application may no longer respond until reloaded. Reload 🗙